sensor_id;sensor_type;location;lat;lon;timestamp;P1;durP1;ratioP1;P2;durP2;ratioP2
45863;SDS011;31579;52.354;16.974;2023-03-01T00:03:41;205.10;;;84.60;;
45863;SDS011;31579;52.354;16.974;2023-03-01T00:08:41;205.10;;;84.60;;
45863;SDS011;31579;52.354;16.974;2023-03-01T00:13:41;200.00;;;81.10;;
45863;SDS011;31579;52.354;16.974;2023-03-01T00:18:41;200.00;;;81.10;;
45863;SDS011;31579;52.354;16.974;2023-03-01T00:23:41;173.70;;;73.40;;
45863;SDS011;31579;52.354;16.974;2023-03-01T00:28:41;173.70;;;73.40;;
45863;SDS011;31579;52.354;16.974;2023-03-01T00:33:41;188.10;;;76.90;;
45863;SDS011;31579;52.354;16.974;2023-03-01T00:38:42;188.10;;;76.90;;
45863;SDS011;31579;52.354;16.974;2023-03-01T00:43:41;177.30;;;74.10;;
45863;SDS011;31579;52.354;16.974;2023-03-01T00:48:41;177.30;;;74.10;;
45863;SDS011;31579;52.354;16.974;2023-03-01T00:53:41;186.10;;;76.80;;
45863;SDS011;31579;52.354;16.974;2023-03-01T00:58:41;186.10;;;76.80;;
45863;SDS011;31579;52.354;16.974;2023-03-01T01:03:41;181.60;;;72.90;;
45863;SDS011;31579;52.354;16.974;2023-03-01T01:08:41;181.60;;;72.90;;
45863;SDS011;31579;52.354;16.974;2023-03-01T01:13:41;214.00;;;83.70;;
45863;SDS011;31579;52.354;16.974;2023-03-01T01:18:41;214.00;;;83.70;;
45863;SDS011;31579;52.354;16.974;2023-03-01T01:23:41;204.00;;;79.80;;
45863;SDS011;31579;52.354;16.974;2023-03-01T01:25:05;204.00;;;79.80;;
45863;SDS011;31579;52.354;16.974;2023-03-01T01:30:03;204.00;;;79.80;;
45863;SDS011;31579;52.354;16.974;2023-03-01T01:35:03;218.50;;;87.00;;
45863;SDS011;31579;52.354;16.974;2023-03-01T01:40:03;218.50;;;87.00;;
45863;SDS011;31579;52.354;16.974;2023-03-01T01:50:03;190.50;;;80.10;;
45863;SDS011;31579;52.354;16.974;2023-03-01T01:55:05;207.00;;;79.10;;
45863;SDS011;31579;52.354;16.974;2023-03-01T02:00:05;207.00;;;79.10;;
45863;SDS011;31579;52.354;16.974;2023-03-01T02:05:06;186.30;;;74.70;;
45863;SDS011;31579;52.354;16.974;2023-03-01T02:10:03;186.30;;;74.70;;
45863;SDS011;31579;52.354;16.974;2023-03-01T02:15:03;158.80;;;65.30;;
45863;SDS011;31579;52.354;16.974;2023-03-01T02:30:03;156.90;;;63.90;;
45863;SDS011;31579;52.354;16.974;2023-03-01T02:35:03;164.10;;;65.20;;
45863;SDS011;31579;52.354;16.974;2023-03-01T02:40:04;164.10;;;65.20;;
45863;SDS011;31579;52.354;16.974;2023-03-01T02:45:06;156.30;;;62.60;;
45863;SDS011;31579;52.354;16.974;2023-03-01T02:50:09;156.30;;;62.60;;
45863;SDS011;31579;52.354;16.974;2023-03-01T02:55:05;168.20;;;68.10;;
45863;SDS011;31579;52.354;16.974;2023-03-01T03:00:05;168.20;;;68.10;;
45863;SDS011;31579;52.354;16.974;2023-03-01T03:05:10;154.90;;;60.80;;
45863;SDS011;31579;52.354;16.974;2023-03-01T03:10:03;154.90;;;60.80;;
45863;SDS011;31579;52.354;16.974;2023-03-01T03:15:04;146.20;;;58.50;;
45863;SDS011;31579;52.354;16.974;2023-03-01T03:20:04;146.20;;;58.50;;
45863;SDS011;31579;52.354;16.974;2023-03-01T03:25:03;152.90;;;60.50;;
45863;SDS011;31579;52.354;16.974;2023-03-01T03:30:01;152.90;;;60.50;;
45863;SDS011;31579;52.354;16.974;2023-03-01T03:35:02;178.90;;;68.50;;
45863;SDS011;31579;52.354;16.974;2023-03-01T03:40:01;178.90;;;68.50;;
45863;SDS011;31579;52.354;16.974;2023-03-01T03:45:01;197.60;;;72.60;;
45863;SDS011;31579;52.354;16.974;2023-03-01T03:50:01;197.60;;;72.60;;
45863;SDS011;31579;52.354;16.974;2023-03-01T03:55:01;179.30;;;68.60;;
45863;SDS011;31579;52.354;16.974;2023-03-01T04:00:01;179.30;;;68.60;;
45863;SDS011;31579;52.354;16.974;2023-03-01T04:05:01;197.80;;;75.40;;
45863;SDS011;31579;52.354;16.974;2023-03-01T04:15:04;184.30;;;75.30;;
45863;SDS011;31579;52.354;16.974;2023-03-01T04:20:01;184.30;;;75.30;;
45863;SDS011;31579;52.354;16.974;2023-03-01T04:25:01;174.80;;;68.10;;
45863;SDS011;31579;52.354;16.974;2023-03-01T04:30:02;174.80;;;68.10;;
45863;SDS011;31579;52.354;16.974;2023-03-01T04:35:01;152.10;;;62.10;;
45863;SDS011;31579;52.354;16.974;2023-03-01T04:40:02;152.10;;;62.10;;
45863;SDS011;31579;52.354;16.974;2023-03-01T04:45:01;171.80;;;66.90;;
45863;SDS011;31579;52.354;16.974;2023-03-01T04:50:01;171.80;;;66.90;;
45863;SDS011;31579;52.354;16.974;2023-03-01T04:55:01;145.90;;;58.20;;
45863;SDS011;31579;52.354;16.974;2023-03-01T05:00:02;145.90;;;58.20;;
45863;SDS011;31579;52.354;16.974;2023-03-01T05:05:06;151.70;;;59.70;;
45863;SDS011;31579;52.354;16.974;2023-03-01T05:10:01;151.70;;;59.70;;
45863;SDS011;31579;52.354;16.974;2023-03-01T05:15:01;179.60;;;69.50;;
45863;SDS011;31579;52.354;16.974;2023-03-01T05:16:39;179.60;;;69.50;;
45863;SDS011;31579;52.354;16.974;2023-03-01T05:21:38;170.70;;;67.60;;
45863;SDS011;31579;52.354;16.974;2023-03-01T05:26:37;170.70;;;67.60;;
45863;SDS011;31579;52.354;16.974;2023-03-01T05:31:37;193.10;;;77.30;;
45863;SDS011;31579;52.354;16.974;2023-03-01T05:36:37;193.10;;;77.30;;
45863;SDS011;31579;52.354;16.974;2023-03-01T05:41:37;178.80;;;66.90;;
45863;SDS011;31579;52.354;16.974;2023-03-01T05:46:37;178.80;;;66.90;;
45863;SDS011;31579;52.354;16.974;2023-03-01T05:51:37;178.20;;;70.40;;
45863;SDS011;31579;52.354;16.974;2023-03-01T05:56:37;178.20;;;70.40;;
45863;SDS011;31579;52.354;16.974;2023-03-01T06:01:37;151.10;;;61.60;;
45863;SDS011;31579;52.354;16.974;2023-03-01T06:06:37;151.10;;;61.60;;
45863;SDS011;31579;52.354;16.974;2023-03-01T06:11:37;194.10;;;73.00;;
45863;SDS011;31579;52.354;16.974;2023-03-01T06:16:40;194.10;;;73.00;;
45863;SDS011;31579;52.354;16.974;2023-03-01T06:21:37;151.70;;;62.10;;
45863;SDS011;31579;52.354;16.974;2023-03-01T06:26:37;151.70;;;62.10;;
45863;SDS011;31579;52.354;16.974;2023-03-01T06:31:37;152.00;;;63.80;;
45863;SDS011;31579;52.354;16.974;2023-03-01T06:36:40;152.00;;;63.80;;
45863;SDS011;31579;52.354;16.974;2023-03-01T06:41:37;161.30;;;66.50;;
45863;SDS011;31579;52.354;16.974;2023-03-01T06:46:38;161.30;;;66.50;;
45863;SDS011;31579;52.354;16.974;2023-03-01T06:51:37;145.10;;;62.10;;
45863;SDS011;31579;52.354;16.974;2023-03-01T06:56:37;145.10;;;62.10;;
45863;SDS011;31579;52.354;16.974;2023-03-01T07:01:37;163.40;;;69.40;;
45863;SDS011;31579;52.354;16.974;2023-03-01T07:06:37;163.40;;;69.40;;
45863;SDS011;31579;52.354;16.974;2023-03-01T07:11:37;172.20;;;74.90;;
45863;SDS011;31579;52.354;16.974;2023-03-01T07:16:37;172.20;;;74.90;;
45863;SDS011;31579;52.354;16.974;2023-03-01T07:21:37;168.80;;;69.60;;
45863;SDS011;31579;52.354;16.974;2023-03-01T07:26:37;168.80;;;69.60;;
45863;SDS011;31579;52.354;16.974;2023-03-01T07:31:37;602.40;;;262.40;;
45863;SDS011;31579;52.354;16.974;2023-03-01T07:36:37;602.40;;;262.40;;
45863;SDS011;31579;52.354;16.974;2023-03-01T07:41:38;133.00;;;60.30;;
45863;SDS011;31579;52.354;16.974;2023-03-01T07:46:37;133.00;;;60.30;;
45863;SDS011;31579;52.354;16.974;2023-03-01T07:51:37;138.10;;;61.20;;
45863;SDS011;31579;52.354;16.974;2023-03-01T07:56:37;138.10;;;61.20;;
45863;SDS011;31579;52.354;16.974;2023-03-01T08:01:37;140.90;;;62.50;;
45863;SDS011;31579;52.354;16.974;2023-03-01T08:06:37;140.90;;;62.50;;
45863;SDS011;31579;52.354;16.974;2023-03-01T08:11:37;120.50;;;56.40;;
45863;SDS011;31579;52.354;16.974;2023-03-01T08:16:37;120.50;;;56.40;;
45863;SDS011;31579;52.354;16.974;2023-03-01T08:20:38;120.50;;;56.40;;
45863;SDS011;31579;52.354;16.974;2023-03-01T08:25:37;120.50;;;56.40;;
45863;SDS011;31579;52.354;16.974;2023-03-01T08:30:36;120.50;;;56.40;;
45863;SDS011;31579;52.354;16.974;2023-03-01T08:35:36;124.20;;;52.50;;
45863;SDS011;31579;52.354;16.974;2023-03-01T08:40:36;124.20;;;52.50;;
45863;SDS011;31579;52.354;16.974;2023-03-01T08:45:36;116.10;;;53.30;;
45863;SDS011;31579;52.354;16.974;2023-03-01T08:50:36;116.10;;;53.30;;
45863;SDS011;31579;52.354;16.974;2023-03-01T08:55:36;94.50;;;41.90;;
45863;SDS011;31579;52.354;16.974;2023-03-01T09:00:36;94.50;;;41.90;;
45863;SDS011;31579;52.354;16.974;2023-03-01T09:05:36;63.30;;;30.20;;
45863;SDS011;31579;52.354;16.974;2023-03-01T09:10:37;63.30;;;30.20;;
45863;SDS011;31579;52.354;16.974;2023-03-01T09:15:37;67.80;;;31.80;;
45863;SDS011;31579;52.354;16.974;2023-03-01T09:20:36;67.80;;;31.80;;
45863;SDS011;31579;52.354;16.974;2023-03-01T09:25:36;48.30;;;22.00;;
45863;SDS011;31579;52.354;16.974;2023-03-01T09:30:36;48.30;;;22.00;;
45863;SDS011;31579;52.354;16.974;2023-03-01T09:35:36;42.30;;;19.30;;
45863;SDS011;31579;52.354;16.974;2023-03-01T09:45:39;31.50;;;16.10;;
45863;SDS011;31579;52.354;16.974;2023-03-01T09:50:39;31.50;;;16.10;;
45863;SDS011;31579;52.354;16.974;2023-03-01T09:55:43;31.40;;;14.00;;
45863;SDS011;31579;52.354;16.974;2023-03-01T10:00:39;31.40;;;14.00;;
45863;SDS011;31579;52.354;16.974;2023-03-01T10:10:38;28.00;;;13.80;;
45863;SDS011;31579;52.354;16.974;2023-03-01T10:15:39;26.90;;;13.50;;
45863;SDS011;31579;52.354;16.974;2023-03-01T10:30:38;26.70;;;14.00;;
45863;SDS011;31579;52.354;16.974;2023-03-01T10:35:37;25.70;;;12.00;;
45863;SDS011;31579;52.354;16.974;2023-03-01T10:40:54;24.40;;;12.80;;
45863;SDS011;31579;52.354;16.974;2023-03-01T10:45:39;24.40;;;12.80;;
45863;SDS011;31579;52.354;16.974;2023-03-01T10:50:38;15.10;;;6.70;;
45863;SDS011;31579;52.354;16.974;2023-03-01T10:55:38;15.10;;;6.70;;
45863;SDS011;31579;52.354;16.974;2023-03-01T11:07:08;17.60;;;7.90;;
45863;SDS011;31579;52.354;16.974;2023-03-01T11:12:13;16.10;;;7.70;;
45863;SDS011;31579;52.354;16.974;2023-03-01T11:27:14;15.40;;;6.30;;
45863;SDS011;31579;52.354;16.974;2023-03-01T11:32:09;13.80;;;6.20;;
45863;SDS011;31579;52.354;16.974;2023-03-01T11:37:11;13.80;;;6.20;;
45863;SDS011;31579;52.354;16.974;2023-03-01T12:12:32;17.60;;;8.30;;
45863;SDS011;31579;52.354;16.974;2023-03-01T12:35:05;18.60;;;9.10;;
45863;SDS011;31579;52.354;16.974;2023-03-01T12:50:04;15.30;;;8.10;;
45863;SDS011;31579;52.354;16.974;2023-03-01T12:55:02;15.10;;;7.80;;
45863;SDS011;31579;52.354;16.974;2023-03-01T13:09:04;15.00;;;7.90;;
45863;SDS011;31579;52.354;16.974;2023-03-01T13:22:35;15.40;;;6.30;;
45863;SDS011;31579;52.354;16.974;2023-03-01T13:26:25;15.40;;;6.30;;
45863;SDS011;31579;52.354;16.974;2023-03-01T13:27:42;15.40;;;6.30;;
45863;SDS011;31579;52.354;16.974;2023-03-01T13:32:40;13.10;;;6.20;;
45863;SDS011;31579;52.354;16.974;2023-03-01T13:37:40;13.10;;;6.20;;
45863;SDS011;31579;52.354;16.974;2023-03-01T13:42:41;9.60;;;5.20;;
45863;SDS011;31579;52.354;16.974;2023-03-01T13:47:54;9.60;;;5.20;;
45863;SDS011;31579;52.354;16.974;2023-03-01T13:52:52;9.90;;;5.30;;
45863;SDS011;31579;52.354;16.974;2023-03-01T13:57:50;9.90;;;5.30;;
45863;SDS011;31579;52.354;16.974;2023-03-01T14:02:58;13.10;;;6.10;;
45863;SDS011;31579;52.354;16.974;2023-03-01T14:07:50;13.10;;;6.10;;
45863;SDS011;31579;52.354;16.974;2023-03-01T14:12:52;10.50;;;5.60;;
45863;SDS011;31579;52.354;16.974;2023-03-01T14:25:57;9.90;;;4.50;;
45863;SDS011;31579;52.354;16.974;2023-03-01T14:31:01;10.20;;;4.80;;
45863;SDS011;31579;52.354;16.974;2023-03-01T14:33:58;10.20;;;4.80;;
45863;SDS011;31579;52.354;16.974;2023-03-01T14:38:56;10.20;;;4.80;;
45863;SDS011;31579;52.354;16.974;2023-03-01T14:43:58;10.40;;;5.20;;
45863;SDS011;31579;52.354;16.974;2023-03-01T14:48:58;10.40;;;5.20;;
45863;SDS011;31579;52.354;16.974;2023-03-01T14:53:56;10.90;;;5.70;;
45863;SDS011;31579;52.354;16.974;2023-03-01T14:58:57;10.90;;;5.70;;
45863;SDS011;31579;52.354;16.974;2023-03-01T15:03:56;11.10;;;5.90;;
45863;SDS011;31579;52.354;16.974;2023-03-01T15:08:56;11.10;;;5.90;;
45863;SDS011;31579;52.354;16.974;2023-03-01T15:13:56;12.10;;;6.00;;
45863;SDS011;31579;52.354;16.974;2023-03-01T15:19:01;12.10;;;6.00;;
45863;SDS011;31579;52.354;16.974;2023-03-01T15:24:05;13.70;;;6.10;;
45863;SDS011;31579;52.354;16.974;2023-03-01T15:28:57;13.70;;;6.10;;
45863;SDS011;31579;52.354;16.974;2023-03-01T15:38:01;11.30;;;5.90;;
45863;SDS011;31579;52.354;16.974;2023-03-01T15:43:03;12.70;;;6.40;;
45863;SDS011;31579;52.354;16.974;2023-03-01T15:48:03;12.70;;;6.40;;
45863;SDS011;31579;52.354;16.974;2023-03-01T15:53:04;14.40;;;6.20;;
45863;SDS011;31579;52.354;16.974;2023-03-01T15:58:04;14.40;;;6.20;;
45863;SDS011;31579;52.354;16.974;2023-03-01T16:08:01;14.30;;;7.00;;
45863;SDS011;31579;52.354;16.974;2023-03-01T16:13:37;13.00;;;6.60;;
45863;SDS011;31579;52.354;16.974;2023-03-01T16:18:37;13.00;;;6.60;;
45863;SDS011;31579;52.354;16.974;2023-03-01T16:23:37;14.40;;;7.40;;
45863;SDS011;31579;52.354;16.974;2023-03-01T16:28:37;14.40;;;7.40;;
45863;SDS011;31579;52.354;16.974;2023-03-01T16:33:37;18.50;;;9.50;;
45863;SDS011;31579;52.354;16.974;2023-03-01T16:38:40;18.50;;;9.50;;
45863;SDS011;31579;52.354;16.974;2023-03-01T16:43:37;22.80;;;11.90;;
45863;SDS011;31579;52.354;16.974;2023-03-01T16:48:37;22.80;;;11.90;;
45863;SDS011;31579;52.354;16.974;2023-03-01T16:53:37;49.50;;;21.60;;
45863;SDS011;31579;52.354;16.974;2023-03-01T16:58:37;49.50;;;21.60;;
45863;SDS011;31579;52.354;16.974;2023-03-01T17:03:37;73.50;;;30.50;;
45863;SDS011;31579;52.354;16.974;2023-03-01T17:08:37;73.50;;;30.50;;
45863;SDS011;31579;52.354;16.974;2023-03-01T17:13:37;64.00;;;29.10;;
45863;SDS011;31579;52.354;16.974;2023-03-01T17:18:37;64.00;;;29.10;;
45863;SDS011;31579;52.354;16.974;2023-03-01T17:23:38;57.20;;;28.20;;
45863;SDS011;31579;52.354;16.974;2023-03-01T17:28:39;57.20;;;28.20;;
45863;SDS011;31579;52.354;16.974;2023-03-01T17:33:37;58.90;;;27.00;;
45863;SDS011;31579;52.354;16.974;2023-03-01T17:38:37;58.90;;;27.00;;
45863;SDS011;31579;52.354;16.974;2023-03-01T17:43:37;65.50;;;30.20;;
45863;SDS011;31579;52.354;16.974;2023-03-01T17:48:37;65.50;;;30.20;;
45863;SDS011;31579;52.354;16.974;2023-03-01T17:53:37;72.90;;;32.40;;
45863;SDS011;31579;52.354;16.974;2023-03-01T18:00:05;85.70;;;38.40;;
45863;SDS011;31579;52.354;16.974;2023-03-01T18:05:04;85.70;;;38.40;;
45863;SDS011;31579;52.354;16.974;2023-03-01T18:10:04;90.50;;;43.40;;
45863;SDS011;31579;52.354;16.974;2023-03-01T18:15:05;90.50;;;43.40;;
45863;SDS011;31579;52.354;16.974;2023-03-01T18:20:05;102.30;;;47.40;;
45863;SDS011;31579;52.354;16.974;2023-03-01T18:25:05;102.30;;;47.40;;
45863;SDS011;31579;52.354;16.974;2023-03-01T18:30:04;114.20;;;52.90;;
45863;SDS011;31579;52.354;16.974;2023-03-01T18:35:05;114.20;;;52.90;;
45863;SDS011;31579;52.354;16.974;2023-03-01T18:40:04;113.70;;;52.70;;
45863;SDS011;31579;52.354;16.974;2023-03-01T18:45:04;113.70;;;52.70;;
45863;SDS011;31579;52.354;16.974;2023-03-01T18:50:04;181.80;;;79.60;;
45863;SDS011;31579;52.354;16.974;2023-03-01T18:55:04;181.80;;;79.60;;
45863;SDS011;31579;52.354;16.974;2023-03-01T19:00:04;173.40;;;77.40;;
45863;SDS011;31579;52.354;16.974;2023-03-01T19:05:04;173.40;;;77.40;;
45863;SDS011;31579;52.354;16.974;2023-03-01T19:10:04;234.40;;;99.90;;
45863;SDS011;31579;52.354;16.974;2023-03-01T19:15:04;234.40;;;99.90;;
45863;SDS011;31579;52.354;16.974;2023-03-01T19:20:04;190.10;;;83.00;;
45863;SDS011;31579;52.354;16.974;2023-03-01T19:25:04;190.10;;;83.00;;
45863;SDS011;31579;52.354;16.974;2023-03-01T19:30:04;182.40;;;80.90;;
45863;SDS011;31579;52.354;16.974;2023-03-01T19:35:04;182.40;;;80.90;;
45863;SDS011;31579;52.354;16.974;2023-03-01T19:40:04;213.10;;;90.40;;
45863;SDS011;31579;52.354;16.974;2023-03-01T19:45:04;213.10;;;90.40;;
45863;SDS011;31579;52.354;16.974;2023-03-01T19:50:04;232.70;;;102.10;;
45863;SDS011;31579;52.354;16.974;2023-03-01T19:55:04;232.70;;;102.10;;
45863;SDS011;31579;52.354;16.974;2023-03-01T20:00:04;214.10;;;92.00;;
45863;SDS011;31579;52.354;16.974;2023-03-01T20:05:04;214.10;;;92.00;;
45863;SDS011;31579;52.354;16.974;2023-03-01T20:10:04;241.50;;;102.00;;
45863;SDS011;31579;52.354;16.974;2023-03-01T20:15:08;241.50;;;102.00;;
45863;SDS011;31579;52.354;16.974;2023-03-01T20:20:04;258.30;;;107.60;;
45863;SDS011;31579;52.354;16.974;2023-03-01T20:25:04;258.30;;;107.60;;
45863;SDS011;31579;52.354;16.974;2023-03-01T20:30:04;275.30;;;108.10;;
45863;SDS011;31579;52.354;16.974;2023-03-01T20:35:06;275.30;;;108.10;;
45863;SDS011;31579;52.354;16.974;2023-03-01T20:40:04;210.70;;;85.90;;
45863;SDS011;31579;52.354;16.974;2023-03-01T20:45:04;210.70;;;85.90;;
45863;SDS011;31579;52.354;16.974;2023-03-01T20:50:04;218.50;;;87.80;;
45863;SDS011;31579;52.354;16.974;2023-03-01T20:55:06;218.50;;;87.80;;
45863;SDS011;31579;52.354;16.974;2023-03-01T21:00:04;222.00;;;87.80;;
45863;SDS011;31579;52.354;16.974;2023-03-01T21:05:05;222.00;;;87.80;;
45863;SDS011;31579;52.354;16.974;2023-03-01T21:10:04;204.60;;;86.40;;
45863;SDS011;31579;52.354;16.974;2023-03-01T21:15:04;204.60;;;86.40;;
45863;SDS011;31579;52.354;16.974;2023-03-01T21:20:04;258.30;;;103.30;;
45863;SDS011;31579;52.354;16.974;2023-03-01T21:25:04;258.30;;;103.30;;
45863;SDS011;31579;52.354;16.974;2023-03-01T21:30:04;226.90;;;94.50;;
45863;SDS011;31579;52.354;16.974;2023-03-01T21:35:04;226.90;;;94.50;;
45863;SDS011;31579;52.354;16.974;2023-03-01T21:40:05;219.10;;;93.30;;
45863;SDS011;31579;52.354;16.974;2023-03-01T21:45:04;219.10;;;93.30;;
45863;SDS011;31579;52.354;16.974;2023-03-01T21:50:04;243.50;;;102.10;;
45863;SDS011;31579;52.354;16.974;2023-03-01T21:55:04;243.50;;;102.10;;
45863;SDS011;31579;52.354;16.974;2023-03-01T22:00:04;242.60;;;102.70;;
45863;SDS011;31579;52.354;16.974;2023-03-01T22:05:04;242.60;;;102.70;;
45863;SDS011;31579;52.354;16.974;2023-03-01T22:10:05;260.30;;;111.10;;
45863;SDS011;31579;52.354;16.974;2023-03-01T22:15:04;260.30;;;111.10;;
45863;SDS011;31579;52.354;16.974;2023-03-01T22:20:04;237.40;;;102.10;;
45863;SDS011;31579;52.354;16.974;2023-03-01T22:25:04;237.40;;;102.10;;
45863;SDS011;31579;52.354;16.974;2023-03-01T22:30:05;265.10;;;116.10;;
45863;SDS011;31579;52.354;16.974;2023-03-01T22:35:04;265.10;;;116.10;;
45863;SDS011;31579;52.354;16.974;2023-03-01T22:40:05;283.90;;;118.20;;
45863;SDS011;31579;52.354;16.974;2023-03-01T22:45:04;283.90;;;118.20;;
45863;SDS011;31579;52.354;16.974;2023-03-01T22:50:06;250.60;;;107.90;;
45863;SDS011;31579;52.354;16.974;2023-03-01T22:55:04;250.60;;;107.90;;
45863;SDS011;31579;52.354;16.974;2023-03-01T23:00:05;225.30;;;94.90;;
45863;SDS011;31579;52.354;16.974;2023-03-01T23:05:04;225.30;;;94.90;;
45863;SDS011;31579;52.354;16.974;2023-03-01T23:10:04;226.50;;;93.90;;
45863;SDS011;31579;52.354;16.974;2023-03-01T23:15:04;226.50;;;93.90;;
45863;SDS011;31579;52.354;16.974;2023-03-01T23:20:08;231.30;;;98.60;;
45863;SDS011;31579;52.354;16.974;2023-03-01T23:25:05;231.30;;;98.60;;
45863;SDS011;31579;52.354;16.974;2023-03-01T23:30:06;255.00;;;108.60;;
45863;SDS011;31579;52.354;16.974;2023-03-01T23:35:05;255.00;;;108.60;;
45863;SDS011;31579;52.354;16.974;2023-03-01T23:40:07;233.20;;;98.90;;
45863;SDS011;31579;52.354;16.974;2023-03-01T23:45:04;233.20;;;98.90;;
45863;SDS011;31579;52.354;16.974;2023-03-01T23:52:26;226.70;;;95.70;;
45863;SDS011;31579;52.354;16.974;2023-03-01T23:57:26;226.70;;;95.70;;
